Time;durP1;ratioP1;P1;durP2;ratioP2;P2;SDS_P1;SDS_P2;PMS_P1;PMS_P2;Temp;Humidity;BMP_temperature;BMP_pressure;BME280_temperature;BME280_humidity;BME280_pressure;Samples;Min_cycle;Max_cycle;Signal;HPM_P1;HPM_P2
2022/01/15 00:00:36;;;;;;;1.45;0.80;;;;;;;6.83;100.00;103399.66;5028600;28;20049;-35
2022/01/15 00:03:06;;;;;;;;;;;;;;;6.80;100.00;103408.41;5031371;28;20411;-35
2022/01/15 00:05:35;;;;;;;2.20;1.10;;;;;;;6.77;100.00;103408.84;5031193;28;20053;-35
2022/01/15 00:08:04;;;;;;;2.42;1.27;;;;;;;6.83;100.00;103404.34;5031519;28;20052;-34
2022/01/15 00:10:32;;;;;;;3.47;1.42;;;;;;;6.84;100.00;103397.72;5030353;28;20041;-32
2022/01/15 00:13:03;;;;;;;2.72;1.70;;;;;;;6.84;100.00;103387.47;5031319;28;20054;-31
2022/01/15 00:15:33;;;;;;;2.92;1.50;;;;;;;6.84;100.00;103383.84;5030547;28;20061;-36
2022/01/15 00:18:06;;;;;;;2.47;1.42;;;;;;;6.84;100.00;103383.84;5031550;28;20136;-40
2022/01/15 00:20:33;;;;;;;7.00;3.15;;;;;;;6.83;100.00;103383.00;5030927;28;20045;-34
2022/01/15 00:23:01;;;;;;;3.05;1.92;;;;;;;6.84;100.00;103383.84;5030548;28;20056;-35
2022/01/15 00:25:30;;;;;;;3.53;2.00;;;;;;;6.85;100.00;103380.00;5030764;28;20064;-38
2022/01/15 00:28:00;;;;;;;3.00;1.40;;;;;;;6.85;100.00;103382.78;5031457;28;20060;-37
2022/01/15 00:30:30;;;;;;;5.20;2.90;;;;;;;6.84;100.00;103379.16;5030321;28;20041;-35
2022/01/15 00:32:57;;;;;;;3.28;1.70;;;;;;;6.82;100.00;103380.44;5020485;28;20057;-39
2022/01/15 00:35:26;;;;;;;4.20;1.90;;;;;;;6.81;100.00;103378.72;5030804;28;20143;-40
2022/01/15 00:37:54;;;;;;;3.90;1.60;;;;;;;6.79;100.00;103369.78;5030212;28;20041;-36
2022/01/15 00:40:22;;;;;;;2.78;1.58;;;;;;;6.79;100.00;103369.78;5030895;28;20053;-35
2022/01/15 00:42:49;;;;;;;3.67;1.80;;;;;;;6.80;100.00;103377.00;5031166;28;20052;-37
2022/01/15 00:45:21;;;;;;;2.88;1.42;;;;;;;6.80;100.00;103374.25;5030096;28;20053;-34
2022/01/15 00:47:51;;;;;;;3.58;1.60;;;;;;;6.79;100.00;103372.56;5030153;28;20457;-35
2022/01/15 00:50:19;;;;;;;2.85;1.60;;;;;;;6.80;100.00;103371.47;5030675;28;20058;-32
2022/01/15 00:52:47;;;;;;;3.53;2.03;;;;;;;6.80;100.00;103365.91;5030288;28;20053;-41
2022/01/15 00:55:16;;;;;;;4.03;1.77;;;;;;;6.79;100.00;103365.09;5030939;28;20051;-34
2022/01/15 00:57:43;;;;;;;4.40;2.25;;;;;;;6.76;100.00;103359.09;5030033;28;20041;-38
2022/01/15 01:00:15;;;;;;;5.57;2.42;;;;;;;6.74;100.00;103350.13;5030824;28;20064;-37
2022/01/15 01:02:42;;;;;;;5.20;2.57;;;;;;;6.70;100.00;103352.47;5030806;28;20046;-35
2022/01/15 01:05:13;;;;;;;4.38;2.22;;;;;;;6.67;100.00;103349.28;5031873;28;20458;-37
2022/01/15 01:07:41;;;;;;;5.30;2.42;;;;;;;6.62;100.00;103346.25;5034650;28;20060;-36
2022/01/15 01:10:32;;;;;;;4.97;2.55;;;;;;;6.60;100.00;103348.41;5034796;28;20418;-35
2022/01/15 01:13:27;;;;;;;3.60;1.95;;;;;;;6.55;100.00;103347.13;5033777;28;20053;-37
2022/01/15 01:22:05;;;;;;;2.92;1.50;;;;;;;6.57;100.00;103333.06;5034518;28;20053;-36
2022/01/15 01:24:23;;;;;;;3.80;2.20;;;;;;;6.54;100.00;103326.00;5034687;28;20104;-33
2022/01/15 01:26:56;;;;;;;3.60;1.80;;;;;;;6.57;100.00;103328.38;5033537;28;20119;-36
2022/01/15 01:29:28;;;;;;;8.35;3.17;;;;;;;6.56;100.00;103326.66;5031297;28;20411;-34
2022/01/15 01:32:01;;;;;;;3.70;2.08;;;;;;;6.55;100.00;103338.81;5034045;28;20092;-34
2022/01/15 01:34:32;;;;;;;4.18;2.53;;;;;;;6.53;100.00;103338.16;5033592;28;20046;-33
2022/01/15 01:37:08;;;;;;;3.60;2.05;;;;;;;6.51;100.00;103334.75;5034377;28;20049;-34
2022/01/15 01:39:43;;;;;;;3.85;2.13;;;;;;;6.47;100.00;103330.69;5033401;28;20502;-35
2022/01/15 01:42:29;;;;;;;4.63;2.33;;;;;;;6.43;100.00;103323.00;5034095;28;20041;-34
2022/01/15 01:45:04;;;;;;;3.47;1.98;;;;;;;6.43;100.00;103321.06;5034710;28;20037;-34
2022/01/15 01:47:39;;;;;;;4.65;2.53;;;;;;;6.43;100.00;103321.06;5033201;28;20041;-35
2022/01/15 01:50:11;;;;;;;5.63;2.50;;;;;;;6.43;100.00;103321.06;5033993;28;20708;-34
2022/01/15 01:52:41;;;;;;;3.15;1.50;;;;;;;6.41;100.00;103323.19;5033802;28;20049;-33
2022/01/15 01:55:09;;;;;;;3.78;1.70;;;;;;;6.39;100.00;103314.25;5032860;28;20041;-34
2022/01/15 01:57:38;;;;;;;3.45;1.85;;;;;;;6.37;100.00;103316.38;5033992;28;20368;-39
2022/01/15 02:00:07;;;;;;;3.50;1.77;;;;;;;6.35;100.00;103318.53;5033702;28;20045;-35
2022/01/15 02:02:43;;;;;;;3.28;2.05;;;;;;;6.32;100.00;103318.09;5033064;28;20049;-35
2022/01/15 02:05:12;;;;;;;3.78;2.03;;;;;;;6.27;100.00;103318.72;5033561;28;20089;-39
2022/01/15 02:07:43;;;;;;;3.65;2.10;;;;;;;6.27;100.00;103312.31;5033741;28;20360;-36
2022/01/15 02:10:13;;;;;;;3.30;1.90;;;;;;;6.27;100.00;103309.53;5033180;28;20561;-40
2022/01/15 02:12:43;;;;;;;2.72;1.77;;;;;;;6.27;100.00;103312.31;5033840;28;20046;-34
2022/01/15 02:15:14;;;;;;;3.50;1.60;;;;;;;6.28;100.00;103317.63;5032502;28;20042;-34
2022/01/15 02:17:43;;;;;;;2.28;1.30;;;;;;;6.29;100.00;103312.94;5014534;28;20050;-36
2022/01/15 02:20:35;;;;;;;2.58;1.70;;;;;;;6.30;100.00;103323.84;5030293;28;20056;-32
2022/01/15 02:25:52;;;;;;;2.78;1.67;;;;;;;6.26;100.00;103308.69;5033353;28;20453;-34
2022/01/15 02:28:24;;;;;;;6.78;2.78;;;;;;;6.25;100.00;103297.78;5033273;28;20116;-37
2022/01/15 02:30:53;;;;;;;6.30;2.90;;;;;;;6.18;100.00;103290.34;5032620;28;20041;-36
2022/01/15 02:33:21;;;;;;;5.18;2.60;;;;;;;6.16;100.00;103286.06;5033080;28;20514;-38
2022/01/15 02:35:51;;;;;;;4.88;2.85;;;;;;;6.15;100.00;103281.59;5032953;28;20038;-36
2022/01/15 02:38:19;;;;;;;4.18;2.17;;;;;;;6.12;100.00;103270.91;5032834;28;20052;-40
2022/01/15 02:40:47;;;;;;;4.68;2.38;;;;;;;6.10;100.00;103278.59;5033466;28;20045;-34
2022/01/15 02:43:19;;;;;;;4.72;2.30;;;;;;;6.08;100.00;103272.41;5032140;28;20100;-38
2022/01/15 02:45:54;;;;;;;2.78;1.75;;;;;;;6.07;100.00;103265.13;5032867;28;20084;-36
2022/01/15 02:48:26;;;;;;;2.97;1.50;;;;;;;6.07;100.00;103266.00;5033015;28;20491;-36
2022/01/15 02:50:56;;;;;;;2.95;1.75;;;;;;;6.10;100.00;103257.25;5031852;28;20057;-36
2022/01/15 02:53:24;;;;;;;3.65;1.88;;;;;;;6.12;100.00;103259.81;5032893;28;20053;-33
2022/01/15 02:55:55;;;;;;;3.58;2.00;;;;;;;6.13;100.00;103259.63;5032353;28;20060;-35
2022/01/15 02:58:24;;;;;;;3.50;2.03;;;;;;;6.13;100.00;103253.22;5032443;28;20073;-42
2022/01/15 03:00:53;;;;;;;4.70;2.13;;;;;;;6.13;100.00;103256.00;5032371;28;20049;-32
2022/01/15 03:03:21;;;;;;;3.33;1.77;;;;;;;6.12;100.00;103245.97;5032660;28;20053;-36
2022/01/15 03:05:49;;;;;;;3.42;2.00;;;;;;;6.14;100.00;103243.84;5031264;28;20420;-36
2022/01/15 03:08:18;;;;;;;3.90;2.10;;;;;;;6.14;100.00;103243.84;5032777;28;20041;-33
2022/01/15 03:10:46;;;;;;;3.55;2.20;;;;;;;6.14;100.00;103233.59;5032112;28;20052;-39
2022/01/15 03:13:14;;;;;;;4.93;2.42;;;;;;;6.14;100.00;103238.31;5031686;28;20071;-38
2022/01/15 03:15:42;;;;;;;4.75;2.63;;;;;;;6.07;100.00;103246.59;5032020;28;20053;-38
2022/01/15 03:18:10;;;;;;;4.45;2.63;;;;;;;5.97;100.00;103243.41;5031394;28;20041;-40
2022/01/15 03:20:38;;;;;;;4.85;2.75;;;;;;;5.93;100.00;103244.00;5032017;28;20045;-36
2022/01/15 03:23:05;;;;;;;3.75;2.03;;;;;;;5.86;100.00;103233.72;5032279;28;20426;-36
2022/01/15 03:25:35;;;;;;;5.65;2.38;;;;;;;5.85;100.00;103226.47;5031262;28;20045;-33
2022/01/15 03:28:03;;;;;;;3.58;2.03;;;;;;;5.80;100.00;103226.25;5031428;28;20046;-38
2022/01/15 03:30:30;;;;;;;3.30;1.77;;;;;;;5.76;100.00;103222.22;5031328;28;20042;-35
2022/01/15 03:32:58;;;;;;;3.72;2.30;;;;;;;5.77;100.00;103225.84;5030941;28;20100;-33
2022/01/15 03:35:26;;;;;;;4.25;2.10;;;;;;;5.75;100.00;103222.41;5031803;28;20037;-35
2022/01/15 03:37:54;;;;;;;3.88;1.85;;;;;;;5.75;100.00;103225.19;5031819;28;20056;-37
2022/01/15 03:40:22;;;;;;;4.13;1.88;;;;;;;5.74;100.00;103227.09;5030110;28;20057;-35
2022/01/15 03:42:51;;;;;;;4.65;2.45;;;;;;;5.74;100.00;103224.34;5031577;28;20099;-31
2022/01/15 03:45:19;;;;;;;4.05;2.15;;;;;;;5.74;100.00;103221.56;5031909;28;20115;-33
2022/01/15 03:47:47;;;;;;;4.40;2.22;;;;;;;5.73;100.00;103208.78;5030779;28;20140;-34
2022/01/15 03:50:16;;;;;;;3.75;2.15;;;;;;;5.72;100.00;103212.59;5030319;28;20131;-35
2022/01/15 03:52:44;;;;;;;3.17;1.65;;;;;;;5.68;100.00;103216.84;5031476;28;20128;-31
2022/01/15 03:55:14;;;;;;;3.80;1.95;;;;;;;5.63;100.00;103208.31;5030501;28;20053;-37
2022/01/15 03:57:42;;;;;;;4.57;2.30;;;;;;;5.62;100.00;103209.38;5030883;28;20057;-32
2022/01/15 04:00:14;;;;;;;3.78;1.77;;;;;;;5.63;100.00;103199.16;5031624;28;20057;-35
2022/01/15 04:02:42;;;;;;;3.50;1.92;;;;;;;5.61;100.00;103188.28;5030954;28;20041;-30
2022/01/15 04:05:12;;;;;;;4.13;1.88;;;;;;;5.61;100.00;103188.28;5030859;28;20049;-35
2022/01/15 04:07:39;;;;;;;3.80;1.95;;;;;;;5.61;100.00;103190.19;5029727;28;20609;-37
2022/01/15 04:10:10;;;;;;;5.25;2.20;;;;;;;5.59;100.00;103179.34;5031380;28;20060;-38
2022/01/15 04:12:39;;;;;;;3.95;2.20;;;;;;;5.59;100.00;103184.03;5030644;28;20056;-35
2022/01/15 04:15:08;;;;;;;4.30;2.13;;;;;;;5.57;100.00;103186.16;5030091;28;20048;-37
2022/01/15 04:17:37;;;;;;;5.75;2.80;;;;;;;5.53;100.00;103180.16;5030664;28;20048;-41
2022/01/15 04:20:06;;;;;;;4.28;2.30;;;;;;;5.53;100.00;103175.50;5027633;28;20111;-37
2022/01/15 04:22:33;;;;;;;4.63;2.33;;;;;;;5.54;100.00;103160.59;5029466;28;20049;-34
2022/01/15 04:25:01;;;;;;;4.82;2.45;;;;;;;5.56;100.00;103157.59;5031493;28;20040;-35
2022/01/15 04:27:29;;;;;;;4.65;2.75;;;;;;;5.56;100.00;103154.84;5031181;28;20431;-34
2022/01/15 04:30:01;;;;;;;6.25;3.40;;;;;;;5.54;100.00;103157.81;5030172;28;20056;-39
2022/01/15 04:32:29;;;;;;;5.57;3.10;;;;;;;5.52;100.00;103146.09;5030766;28;20041;-38
2022/01/15 04:34:59;;;;;;;5.90;3.08;;;;;;;5.51;100.00;103138.84;5030729;28;20406;-38
2022/01/15 04:37:35;;;;;;;6.10;3.20;;;;;;;5.48;100.00;103150.34;5030234;28;20072;-33
2022/01/15 04:40:04;;;;;;;5.70;2.60;;;;;;;5.45;100.00;103156.28;5032974;28;20045;-35
2022/01/15 04:42:32;;;;;;;6.47;3.22;;;;;;;5.43;100.00;103161.16;5015763;28;20447;-36
2022/01/15 04:45:01;;;;;;;5.95;3.05;;;;;;;5.39;100.00;103153.53;5034722;28;20076;-33
2022/01/15 04:47:28;;;;;;;5.25;2.72;;;;;;;5.37;100.00;103141.78;5034874;28;20105;-38
2022/01/15 04:49:56;;;;;;;5.93;3.22;;;;;;;5.36;100.00;103143.72;5033531;28;20048;-33
2022/01/15 04:52:25;;;;;;;5.55;2.50;;;;;;;5.35;100.00;103150.31;5035006;28;20052;-31
2022/01/15 04:54:53;;;;;;;5.72;2.70;;;;;;;5.29;100.00;103148.38;5034526;28;20049;-36
2022/01/15 04:57:21;;;;;;;4.88;2.33;;;;;;;5.27;100.00;103147.72;5034089;28;20053;-33
2022/01/15 04:59:48;;;;;;;5.88;2.30;;;;;;;5.20;100.00;103142.16;5034374;28;20052;-38
2022/01/15 05:02:16;;;;;;;5.22;2.20;;;;;;;5.15;100.00;103133.63;5034344;28;20041;-37
2022/01/15 05:04:44;;;;;;;5.22;2.20;;;;;;;5.11;100.00;103137.03;5031973;28;20038;-37
2022/01/15 05:07:12;;;;;;;4.93;2.20;;;;;;;5.06;100.00;103137.63;5034761;28;20585;-39
2022/01/15 05:09:41;;;;;;;5.43;2.17;;;;;;;5.06;100.00;103136.78;5034805;28;20384;-37
2022/01/15 05:12:12;;;;;;;3.28;1.67;;;;;;;5.05;100.00;103130.38;5034119;28;20048;-35
2022/01/15 05:14:40;;;;;;;3.83;1.70;;;;;;;4.98;100.00;103125.91;5034310;28;20037;-36
2022/01/15 05:17:08;;;;;;;3.55;1.55;;;;;;;4.92;100.00;103118.41;5034338;28;20083;-36
2022/01/15 05:19:36;;;;;;;3.85;1.58;;;;;;;4.90;100.00;103118.63;5033249;28;20517;-36
2022/01/15 05:22:04;;;;;;;3.35;1.20;;;;;;;4.89;100.00;103127.13;5034387;28;20526;-37
2022/01/15 05:24:33;;;;;;;2.90;1.10;;;;;;;4.83;100.00;103120.50;5034647;28;20052;-36
2022/01/15 05:27:02;;;;;;;2.92;1.25;;;;;;;4.78;100.00;103121.13;5033511;28;20409;-37
2022/01/15 05:29:30;;;;;;;3.15;0.88;;;;;;;4.76;100.00;103111.34;5034043;28;20049;-32
2022/01/15 05:31:58;;;;;;;1.75;0.55;;;;;;;4.75;100.00;103113.25;5031539;28;20048;-36
2022/01/15 05:34:29;;;;;;;2.22;0.77;;;;;;;4.74;100.00;103113.44;5034403;28;20053;-38
2022/01/15 05:36:57;;;;;;;2.63;0.90;;;;;;;4.70;100.00;103113.00;5033923;28;20387;-33
2022/01/15 05:39:24;;;;;;;2.40;0.90;;;;;;;4.70;100.00;103112.16;5015059;28;20049;-34
2022/01/15 05:41:52;;;;;;;2.25;0.80;;;;;;;4.68;100.00;103114.25;5030367;28;20396;-32
2022/01/15 05:44:21;;;;;;;2.15;0.80;;;;;;;4.68;100.00;103104.06;5034252;28;20053;-33
2022/01/15 05:46:49;;;;;;;2.20;0.98;;;;;;;4.66;100.00;103105.31;5032518;28;20498;-37
2022/01/15 05:49:17;;;;;;;2.50;0.80;;;;;;;4.65;100.00;103101.69;5031617;28;20410;-35
2022/01/15 05:51:44;;;;;;;2.85;1.00;;;;;;;4.64;100.00;103102.75;5030882;28;20414;-33
2022/01/15 05:54:13;;;;;;;2.33;1.00;;;;;;;4.65;100.00;103106.38;5032366;28;20060;-39
2022/01/15 05:56:41;;;;;;;2.35;0.98;;;;;;;4.65;100.00;103095.31;5032815;28;20041;-35
2022/01/15 05:59:09;;;;;;;3.35;1.20;;;;;;;4.63;100.00;103091.91;5031680;28;20056;-39
2022/01/15 06:01:39;;;;;;;2.25;0.95;;;;;;;4.59;100.00;103082.34;5030791;28;20406;-35
2022/01/15 06:16:50;;;;;;;4.03;1.20;;;;;;;4.24;100.00;103062.97;5063784;28;20489;-35
2022/01/15 06:19:18;;;;;;;4.07;1.65;;;;;;;4.22;100.00;103073.38;5073862;28;20094;-38
2022/01/15 06:21:45;;;;;;;4.20;1.80;;;;;;;4.22;100.00;103069.75;5072881;28;20040;-39
2022/01/15 06:24:13;;;;;;;3.63;1.40;;;;;;;4.26;100.00;103058.09;5071179;28;20060;-40
2022/01/15 06:26:41;;;;;;;5.72;1.98;;;;;;;4.32;100.00;103053.69;5070013;28;20056;-37
2022/01/15 06:29:08;;;;;;;6.10;2.50;;;;;;;4.31;100.00;103051.97;5068961;28;20052;-35
2022/01/15 06:31:36;;;;;;;5.80;2.15;;;;;;;4.33;100.00;103050.72;5060638;28;20053;-36
2022/01/15 06:34:05;;;;;;;5.43;2.08;;;;;;;4.31;100.00;103041.78;5072391;28;20063;-34
2022/01/15 06:36:33;;;;;;;6.07;2.25;;;;;;;4.32;100.00;103051.78;5073069;28;20058;-33
2022/01/15 06:39:00;;;;;;;8.40;3.10;;;;;;;4.31;100.00;103050.06;5071784;28;20068;-32
2022/01/15 06:41:28;;;;;;;7.95;3.40;;;;;;;4.30;100.00;103048.34;5072728;28;20044;-32
2022/01/15 06:43:56;;;;;;;8.45;3.40;;;;;;;4.31;100.00;103041.78;5072265;28;20057;-29
2022/01/15 06:46:24;;;;;;;19.08;4.43;;;;;;;4.34;100.00;103044.13;5071925;28;20048;-35
2022/01/15 06:48:52;;;;;;;16.95;4.93;;;;;;;4.28;100.00;103047.69;5072539;28;20431;-32
2022/01/15 06:51:21;;;;;;;12.18;4.80;;;;;;;4.29;100.00;103043.03;5072382;28;20056;-36
2022/01/15 06:53:49;;;;;;;10.85;4.60;;;;;;;4.29;100.00;103043.88;5072314;28;20044;-33
2022/01/15 06:56:16;;;;;;;12.88;4.22;;;;;;;4.33;100.00;103041.56;5072284;28;20048;-35
2022/01/15 06:58:45;;;;;;;28.35;4.78;;;;;;;4.31;100.00;103033.47;5071332;28;20083;-40
2022/01/15 07:01:13;;;;;;;14.50;4.93;;;;;;;4.29;100.00;103031.97;5072581;28;20055;-34
2022/01/15 07:03:41;;;;;;;19.25;4.55;;;;;;;4.28;100.00;103014.53;5071568;28;20041;-38
2022/01/15 07:06:09;;;;;;;15.93;4.65;;;;;;;4.23;100.00;103030.00;5071581;28;20040;-35
2022/01/15 07:08:38;;;;;;;31.88;5.53;;;;;;;4.18;100.00;103025.13;5072047;28;20508;-34
2022/01/15 07:11:06;;;;;;;18.98;4.88;;;;;;;4.15;100.00;103031.06;5070672;28;20390;-36
2022/01/15 07:13:34;;;;;;;25.13;4.78;;;;;;;4.08;100.00;103025.47;5071394;28;20052;-37
2022/01/15 07:16:02;;;;;;;45.67;4.65;;;;;;;4.02;100.00;103030.94;5072090;28;20055;-33
2022/01/15 07:18:29;;;;;;;18.10;3.92;;;;;;;3.97;100.00;103028.81;5071964;28;20048;-35
2022/01/15 07:20:57;;;;;;;20.95;3.88;;;;;;;3.94;100.00;103031.13;5070921;28;20047;-33
2022/01/15 07:23:25;;;;;;;12.88;3.47;;;;;;;3.91;100.00;103032.38;5072314;28;20162;-34
2022/01/15 07:25:54;;;;;;;17.00;3.60;;;;;;;3.89;100.00;103028.09;5071739;28;20048;-36
2022/01/15 07:28:24;;;;;;;13.85;4.07;;;;;;;3.86;100.00;103021.06;5071201;28;20048;-37
2022/01/15 07:30:51;;;;;;;20.83;3.90;;;;;;;3.84;100.00;103019.56;5071639;28;20056;-37
2022/01/15 07:33:19;;;;;;;10.98;3.13;;;;;;;3.87;100.00;103019.16;5071767;28;20462;-36
2022/01/15 07:35:47;;;;;;;19.98;3.83;;;;;;;3.87;100.00;103025.53;5070888;28;20060;-35
2022/01/15 07:38:16;;;;;;;13.40;3.35;;;;;;;3.90;100.00;103022.38;5071302;28;20061;-35
2022/01/15 07:40:43;;;;;;;41.75;4.13;;;;;;;3.91;100.00;103023.25;5070661;28;20044;-34
2022/01/15 07:43:12;;;;;;;19.55;3.40;;;;;;;3.91;100.00;103029.63;5071285;28;20049;-37
2022/01/15 07:45:43;;;;;;;26.00;3.35;;;;;;;3.92;100.00;103030.47;5062920;28;20072;-32
2022/01/15 07:48:10;;;;;;;36.25;3.90;;;;;;;3.85;100.00;103027.66;5067084;28;20486;-40
2022/01/15 07:50:38;;;;;;;70.47;5.15;;;;;;;3.78;100.00;103024.88;5070550;28;20060;-39
2022/01/15 07:53:06;;;;;;;46.40;4.28;;;;;;;3.77;100.00;103034.19;5070333;28;20047;-35
2022/01/15 07:55:34;;;;;;;18.95;3.63;;;;;;;3.73;100.00;103046.69;5069988;28;20054;-36
2022/01/15 07:58:03;;;;;;;10.95;3.90;;;;;;;3.72;100.00;103033.94;5070663;28;20110;-36
2022/01/15 08:00:32;;;;;;;42.17;4.60;;;;;;;3.68;100.00;103027.09;5070751;28;20048;-33
2022/01/15 08:03:00;;;;;;;33.35;4.88;;;;;;;3.70;100.00;103047.09;5069441;28;20037;-39
2022/01/15 08:05:28;;;;;;;55.42;5.63;;;;;;;3.74;100.00;103037.34;5070562;28;20457;-36
2022/01/15 08:07:56;;;;;;;32.70;5.00;;;;;;;3.75;100.00;103046.50;5070089;28;20036;-36
2022/01/15 08:10:23;;;;;;;27.08;4.90;;;;;;;3.77;100.00;103045.25;5068931;28;20148;-40
2022/01/15 08:12:51;;;;;;;30.55;5.22;;;;;;;3.80;100.00;103044.81;5065074;28;20409;-38
2022/01/15 08:15:21;;;;;;;57.10;6.22;;;;;;;3.78;100.00;103041.44;5071327;28;20036;-34
2022/01/15 08:17:50;;;;;;;17.00;5.03;;;;;;;3.78;100.00;103038.66;5070024;28;20088;-35
2022/01/15 08:20:18;;;;;;;13.60;5.10;;;;;;;3.81;100.00;103040.16;5071174;28;20048;-33
2022/01/15 08:22:46;;;;;;;40.17;6.13;;;;;;;3.80;100.00;103041.19;5070096;28;20049;-37
2022/01/15 08:25:16;;;;;;;51.78;6.07;;;;;;;3.78;100.00;103041.44;5070384;28;20041;-35
2022/01/15 08:27:44;;;;;;;26.98;5.70;;;;;;;3.78;100.00;103038.66;5069818;28;20436;-37
2022/01/15 08:30:12;;;;;;;43.85;7.05;;;;;;;3.79;100.00;103051.44;5069682;28;20478;-35
2022/01/15 08:32:40;;;;;;;63.35;6.60;;;;;;;3.76;100.00;103049.06;5070833;28;20087;-31
2022/01/15 08:35:10;;;;;;;50.08;5.78;;;;;;;3.75;100.00;103052.03;5071007;28;20052;-37
2022/01/15 08:37:38;;;;;;;48.22;6.90;;;;;;;3.77;100.00;103050.78;5069922;28;20044;-37
2022/01/15 08:40:08;;;;;;;30.50;6.22;;;;;;;3.76;100.00;103046.31;5070811;28;20182;-32
2022/01/15 08:42:36;;;;;;;36.90;6.75;;;;;;;3.77;100.00;103047.16;5070249;28;20052;-35
2022/01/15 08:45:06;;;;;;;43.20;6.50;;;;;;;3.77;100.00;103044.41;5069905;28;20045;-40
2022/01/15 08:47:34;;;;;;;40.33;6.50;;;;;;;3.74;100.00;103050.31;5067577;28;20041;-35
2022/01/15 08:50:02;;;;;;;20.27;5.88;;;;;;;3.70;100.00;103043.47;5070485;28;20045;-33
2022/01/15 08:52:31;;;;;;;34.20;5.88;;;;;;;3.66;100.00;103039.41;5069829;28;20052;-36
2022/01/15 08:54:59;;;;;;;12.82;5.97;;;;;;;3.69;100.00;103034.34;5070504;28;20052;-35
2022/01/15 08:57:27;;;;;;;41.20;7.80;;;;;;;3.71;100.00;103028.63;5070320;28;20048;-38
2022/01/15 08:59:54;;;;;;;20.67;6.70;;;;;;;3.73;100.00;103035.66;5069420;28;20422;-34
2022/01/15 09:02:22;;;;;;;39.78;8.52;;;;;;;3.68;100.00;103038.16;5069656;28;20048;-37
2022/01/15 09:04:51;;;;;;;48.17;8.38;;;;;;;3.73;100.00;103032.03;5070382;28;20041;-40
2022/01/15 09:07:19;;;;;;;42.08;7.93;;;;;;;3.70;100.00;103013.97;5069575;28;20417;-35
2022/01/15 09:09:48;;;;;;;44.10;7.53;;;;;;;3.69;100.00;103019.69;5070182;28;20052;-33
2022/01/15 09:12:19;;;;;;;44.58;7.25;;;;;;;3.63;100.00;103029.59;5069881;28;20044;-36
2022/01/15 09:14:47;;;;;;;38.83;7.18;;;;;;;3.61;100.00;103026.19;5070073;28;20041;-39
2022/01/15 09:17:15;;;;;;;22.88;6.80;;;;;;;3.55;100.00;103015.97;5069719;28;20051;-35
2022/01/15 09:19:43;;;;;;;31.50;7.70;;;;;;;3.57;100.00;103013.88;5067816;28;20053;-38
2022/01/15 09:22:11;;;;;;;37.78;7.68;;;;;;;3.62;100.00;103010.47;5070332;28;20284;-36
2022/01/15 09:24:42;;;;;;;25.38;6.35;;;;;;;3.64;100.00;103011.13;5070376;28;20041;-38
2022/01/15 09:32:39;;;;;;;28.90;7.03;;;;;;;3.55;100.00;103004.06;5073761;28;20051;-32
2022/01/15 09:35:07;;;;;;;38.60;7.20;;;;;;;3.52;100.00;103008.09;5071798;28;20045;-34
2022/01/15 09:37:36;;;;;;;32.95;7.22;;;;;;;3.49;100.00;103002.09;5073922;28;20045;-37
2022/01/15 09:40:05;;;;;;;25.80;6.22;;;;;;;3.48;100.00;102992.97;5073777;28;20052;-31
2022/01/15 09:42:35;;;;;;;35.28;6.50;;;;;;;3.44;100.00;102999.94;5072736;28;20076;-36
2022/01/15 09:45:05;;;;;;;25.33;6.55;;;;;;;3.42;100.00;102996.53;5073522;28;20064;-36
2022/01/15 09:47:33;;;;;;;32.80;7.07;;;;;;;3.47;100.00;102999.53;5072885;28;20056;-38
2022/01/15 09:50:03;;;;;;;26.48;6.47;;;;;;;3.49;100.00;102999.34;5073260;28;20060;-36
2022/01/15 09:52:32;;;;;;;39.95;6.88;;;;;;;3.51;100.00;102988.97;5073540;28;20048;-38
2022/01/15 09:55:00;;;;;;;18.73;5.63;;;;;;;3.54;100.00;102989.41;5072844;28;20048;-34
2022/01/15 09:57:28;;;;;;;27.60;6.35;;;;;;;3.55;100.00;102995.78;5072832;28;20052;-34
2022/01/15 09:59:57;;;;;;;26.15;6.70;;;;;;;3.49;100.00;102996.59;5070975;28;20036;-36
2022/01/15 10:02:25;;;;;;;34.85;6.60;;;;;;;3.44;100.00;102998.03;5071443;28;20516;-36
2022/01/15 10:04:53;;;;;;;34.28;6.07;;;;;;;3.43;100.00;102995.47;5072473;28;20410;-32
2022/01/15 10:07:25;;;;;;;25.67;6.28;;;;;;;3.37;100.00;102996.28;5072359;28;20049;-34
2022/01/15 10:09:53;;;;;;;27.05;6.05;;;;;;;3.39;100.00;102991.44;5072454;28;20040;-38
2022/01/15 10:12:26;;;;;;;33.67;6.03;;;;;;;3.36;100.00;102989.91;5073016;28;20053;-33
2022/01/15 10:14:59;;;;;;;25.75;5.88;;;;;;;3.37;100.00;102988.88;5073042;28;20037;-33
2022/01/15 10:17:33;;;;;;;26.83;5.97;;;;;;;3.40;100.00;102977.41;5061856;28;20045;-38
2022/01/15 10:20:01;;;;;;;28.48;6.05;;;;;;;3.42;100.00;102975.28;5073082;28;20079;-36
2022/01/15 10:22:31;;;;;;;24.75;6.18;;;;;;;3.40;100.00;102971.03;5072069;28;20056;-36
2022/01/15 10:25:00;;;;;;;24.35;6.68;;;;;;;3.38;100.00;102962.13;5077824;28;20047;-33
2022/01/15 10:27:32;;;;;;;29.80;6.13;;;;;;;3.36;100.00;102964.22;5072689;28;20048;-36
2022/01/15 10:30:08;;;;;;;24.75;5.43;;;;;;;3.37;100.00;102961.28;5060802;28;20052;-38
2022/01/15 10:32:39;;;;;;;26.77;6.38;;;;;;;3.35;100.00;102968.88;5070527;28;20051;-34
2022/01/15 10:35:12;;;;;;;30.92;6.60;;;;;;;3.38;100.00;102967.66;5072381;28;20057;-38
2022/01/15 10:37:51;;;;;;;28.45;6.47;;;;;;;3.39;100.00;102959.16;5066785;28;20033;-32
2022/01/15 10:40:22;;;;;;;29.50;6.30;;;;;;;3.40;100.00;102960.00;5062742;28;20418;-35
2022/01/15 10:42:58;;;;;;;28.23;6.18;;;;;;;3.34;100.00;102961.66;5072686;28;20044;-35
2022/01/15 10:45:31;;;;;;;35.17;6.60;;;;;;;3.27;100.00;102968.16;5061851;28;20052;-36
2022/01/15 10:48:02;;;;;;;37.70;6.75;;;;;;;3.32;100.00;102963.75;5071602;28;20075;-32
2022/01/15 10:50:32;;;;;;;30.17;7.38;;;;;;;3.38;100.00;102959.38;5080289;28;20063;-34
2022/01/15 10:53:07;;;;;;;18.88;6.53;;;;;;;3.40;100.00;102960.00;5089944;28;20040;-33
2022/01/15 10:55:35;;;;;;;18.75;6.07;;;;;;;3.40;100.00;102960.00;5080342;28;20044;-34
2022/01/15 10:58:05;;;;;;;30.27;6.35;;;;;;;3.35;100.00;102952.34;5075457;28;20057;-31
2022/01/15 11:00:40;;;;;;;19.98;5.85;;;;;;;3.32;100.00;102955.50;5061510;28;20047;-37
2022/01/15 11:03:12;;;;;;;21.38;5.43;;;;;;;3.27;100.00;102949.72;5076458;28;20080;-30
2022/01/15 11:05:42;;;;;;;46.65;7.35;;;;;;;3.29;100.00;102949.50;5079989;28;20392;-35
2022/01/15 11:08:13;;;;;;;23.25;6.00;;;;;;;3.28;100.00;102947.81;5077680;28;20045;-37
2022/01/15 11:10:50;;;;;;;19.77;5.70;;;;;;;3.33;100.00;102945.31;5079900;28;20046;-35
2022/01/15 11:13:21;;;;;;;17.02;6.22;;;;;;;3.36;100.00;102959.56;5077295;28;20044;-34
2022/01/15 11:15:50;;;;;;;23.92;7.10;;;;;;;3.37;100.00;102949.38;5078949;28;20035;-34
2022/01/15 11:18:22;;;;;;;15.55;6.85;;;;;;;3.36;100.00;102947.66;5078696;28;20071;-35
2022/01/15 11:20:51;;;;;;;10.70;5.45;;;;;;;3.33;100.00;102954.44;5083400;28;20044;-36
2022/01/15 11:23:21;;;;;;;15.23;6.35;;;;;;;3.36;100.00;102950.44;5079546;28;20457;-38
2022/01/15 11:25:50;;;;;;;15.57;7.25;;;;;;;3.35;100.00;102952.34;5083318;28;20041;-41
2022/01/15 11:28:24;;;;;;;13.93;6.38;;;;;;;3.45;100.00;102935.41;5079859;28;20485;-38
2022/01/15 11:30:55;;;;;;;17.55;7.43;;;;;;;3.50;100.00;102932.91;5084984;28;20047;-31
2022/01/15 11:33:27;;;;;;;14.10;6.82;;;;;;;3.57;100.00;102941.25;5078305;28;20048;-33
2022/01/15 11:35:55;;;;;;;12.10;5.68;;;;;;;3.57;100.00;102936.56;5086081;28;20054;-36
2022/01/15 11:38:43;;;;;;;22.13;7.68;;;;;;;3.55;100.00;102924.88;5074770;28;20048;-33
2022/01/15 11:41:40;;;;;;;21.33;7.75;;;;;;;3.50;100.00;102913.59;5074413;28;20052;-35
2022/01/15 11:44:11;;;;;;;13.88;6.75;;;;;;;3.50;100.00;102909.97;5078676;28;20040;-33
2022/01/15 11:46:46;;;;;;;16.60;6.28;;;;;;;3.53;100.00;102902.16;5077960;28;20048;-38
2022/01/15 11:49:34;;;;;;;20.13;7.82;;;;;;;3.54;100.00;102891.97;5060620;28;20143;-37
2022/01/15 11:52:42;;;;;;;17.80;7.00;;;;;;;3.50;100.00;102885.97;5085881;28;20037;-41
2022/01/15 11:55:16;;;;;;;19.73;7.35;;;;;;;3.53;100.00;102881.97;5085579;28;20036;-34
2022/01/15 11:57:56;;;;;;;22.13;7.63;;;;;;;3.54;100.00;102873.50;5079450;28;20058;-33
2022/01/15 12:00:30;;;;;;;26.35;8.00;;;;;;;3.50;100.00;102871.34;5085381;28;20032;-33